createdAt,value
2022-11-25T00:01:32.075Z,100078.80
2022-11-25T00:04:00.938Z,100080.80
2022-11-25T00:06:34.713Z,100083.58
2022-11-25T00:09:07.608Z,100084.30
2022-11-25T00:11:37.484Z,100087.87
2022-11-25T00:14:06.811Z,100087.12
2022-11-25T00:16:35.019Z,100089.98
2022-11-25T00:19:03.784Z,100094.32
2022-11-25T00:21:34.224Z,100096.80
2022-11-25T00:24:05.647Z,100101.02
2022-11-25T00:26:35.624Z,100098.27
2022-11-25T00:29:07.036Z,100097.81
2022-11-25T00:31:39.336Z,100099.44
2022-11-25T00:34:11.751Z,100100.55
2022-11-25T00:36:40.143Z,100109.64
2022-11-25T00:39:17.613Z,100109.88
2022-11-25T00:42:05.874Z,100111.03
2022-11-25T00:44:37.559Z,100113.44
2022-11-25T00:47:21.022Z,100110.10
2022-11-25T00:49:51.956Z,100111.52
2022-11-25T00:52:22.270Z,100111.44
2022-11-25T00:54:52.539Z,100114.79
2022-11-25T00:57:23.455Z,100115.13
2022-11-25T00:59:51.753Z,100115.56
2022-11-25T01:02:22.337Z,100124.95
2022-11-25T01:04:50.558Z,100124.83
2022-11-25T01:07:19.155Z,100125.30
2022-11-25T01:09:48.130Z,100126.93
2022-11-25T01:12:15.901Z,100130.27
2022-11-25T01:14:43.740Z,100133.08
2022-11-25T01:17:11.645Z,100136.93
2022-11-25T01:19:40.734Z,100140.27
2022-11-25T01:22:09.406Z,100142.47
2022-11-25T01:24:37.791Z,100144.33
2022-11-25T01:27:06.061Z,100148.33
2022-11-25T01:29:33.980Z,100153.65
2022-11-25T01:32:01.858Z,100153.23
2022-11-25T01:34:32.507Z,100152.11
2022-11-25T01:37:00.527Z,100154.80
2022-11-25T01:39:32.373Z,100155.73
2022-11-25T01:42:01.859Z,100155.86
2022-11-25T01:44:32.079Z,100153.28
2022-11-25T01:47:15.309Z,100151.23
2022-11-25T01:50:03.725Z,100151.15
2022-11-25T01:52:35.717Z,100154.23
2022-11-25T01:55:11.553Z,100160.40
2022-11-25T01:57:54.180Z,100162.39
2022-11-25T02:00:22.286Z,100159.48
2022-11-25T02:02:53.322Z,100159.97
2022-11-25T02:05:35.598Z,100160.32
2022-11-25T02:08:06.203Z,100167.95
2022-11-25T02:10:35.938Z,100173.45
2022-11-25T02:13:04.316Z,100173.95
2022-11-25T02:15:35.376Z,100177.13
2022-11-25T02:18:05.664Z,100175.60
2022-11-25T02:20:33.838Z,100175.80
2022-11-25T02:23:29.167Z,100175.59
2022-11-25T02:26:00.765Z,100177.56
2022-11-25T02:28:31.215Z,100179.65
2022-11-25T02:31:00.087Z,100181.30
2022-11-25T02:33:28.821Z,100179.35
2022-11-25T02:35:57.510Z,100180.08
2022-11-25T02:38:43.597Z,100183.76
2022-11-25T02:41:16.825Z,100185.77
2022-11-25T02:43:47.316Z,100187.45
2022-11-25T02:46:22.226Z,100187.39
2022-11-25T02:49:08.431Z,100182.45
2022-11-25T02:51:40.569Z,100185.95
2022-11-25T02:54:11.119Z,100188.79
2022-11-25T02:56:40.452Z,100197.61
2022-11-25T02:59:10.460Z,100203.22
2022-11-25T03:01:39.635Z,100202.92
2022-11-25T03:04:08.859Z,100210.91
2022-11-25T03:06:37.230Z,100215.68
2022-11-25T03:09:05.368Z,100218.05
2022-11-25T03:11:51.905Z,100216.88
2022-11-25T03:14:21.409Z,100219.88
2022-11-25T03:16:49.537Z,100218.27
2022-11-25T03:19:17.559Z,100221.34
2022-11-25T03:21:45.565Z,100225.20
2022-11-25T03:24:13.348Z,100225.51
2022-11-25T03:26:41.829Z,100228.16
2022-11-25T03:29:09.859Z,100231.57
2022-11-25T03:31:38.953Z,100236.15
2022-11-25T03:34:09.566Z,100241.70
2022-11-25T03:36:38.152Z,100249.70
2022-11-25T03:39:06.931Z,100258.11
2022-11-25T03:41:35.375Z,100259.89
2022-11-25T03:44:03.483Z,100264.61
2022-11-25T03:46:31.555Z,100265.20
2022-11-25T03:49:00.753Z,100267.08
2022-11-25T03:51:30.462Z,100267.43
2022-11-25T03:53:59.863Z,100269.20
2022-11-25T03:56:28.343Z,100267.46
2022-11-25T03:58:57.950Z,100265.69
2022-11-25T04:01:26.459Z,100266.88
2022-11-25T04:03:54.810Z,100270.09
2022-11-25T04:06:24.031Z,100271.70
2022-11-25T04:08:52.798Z,100276.73
2022-11-25T04:11:20.766Z,100279.52
2022-11-25T04:13:51.190Z,100282.41
2022-11-25T04:16:25.318Z,100285.02
2022-11-25T04:18:53.886Z,100286.48
2022-11-25T04:21:21.764Z,100290.64
2022-11-25T04:23:50.023Z,100294.28
2022-11-25T04:26:18.097Z,100300.08
2022-11-25T04:28:46.374Z,100302.48
2022-11-25T04:31:14.933Z,100305.37
2022-11-25T04:33:48.340Z,100306.73
2022-11-25T04:36:19.804Z,100311.36
2022-11-25T04:38:47.981Z,100312.17
2022-11-25T04:41:16.385Z,100315.33
2022-11-25T04:43:46.569Z,100319.33
2022-11-25T04:46:18.060Z,100320.35
2022-11-25T04:48:49.932Z,100323.62
2022-11-25T04:51:18.189Z,100324.97
2022-11-25T04:53:46.696Z,100324.92
2022-11-25T04:56:18.932Z,100328.78
2022-11-25T04:59:06.552Z,100331.42
2022-11-25T05:01:35.518Z,100331.60
2022-11-25T05:04:17.087Z,100338.05
2022-11-25T05:06:45.121Z,100341.16
2022-11-25T05:09:14.289Z,100344.77
2022-11-25T05:11:42.626Z,100346.45
2022-11-25T05:14:10.595Z,100349.28
2022-11-25T05:16:39.240Z,100350.17
2022-11-25T05:19:07.751Z,100347.88
2022-11-25T05:21:35.689Z,100353.04
2022-11-25T05:24:03.821Z,100357.78
2022-11-25T05:26:31.981Z,100360.64
2022-11-25T05:29:01.317Z,100363.23
2022-11-25T05:31:30.657Z,100367.32
2022-11-25T05:34:03.206Z,100375.31
2022-11-25T05:36:32.539Z,100379.29
2022-11-25T05:39:01.702Z,100382.89
2022-11-25T05:41:55.435Z,100392.16
2022-11-25T05:44:23.721Z,100397.23
2022-11-25T05:46:53.409Z,100397.51
2022-11-25T05:49:21.984Z,100403.69
2022-11-25T05:51:50.654Z,100406.46
2022-11-25T05:54:20.355Z,100407.02
2022-11-25T05:56:48.198Z,100409.21
2022-11-25T05:59:25.011Z,100408.55
2022-11-25T06:02:00.796Z,100411.38
2022-11-25T06:04:28.931Z,100414.56
2022-11-25T06:06:57.020Z,100417.34
2022-11-25T06:09:24.854Z,100422.96
2022-11-25T06:11:53.377Z,100425.82
2022-11-25T06:14:21.198Z,100425.52
2022-11-25T06:16:50.000Z,100427.63
2022-11-25T06:19:28.469Z,100432.98
2022-11-25T06:21:56.435Z,100434.70
2022-11-25T06:24:25.784Z,100435.52
2022-11-25T06:26:58.139Z,100440.31
2022-11-25T06:29:26.090Z,100441.11
2022-11-25T06:31:54.149Z,100445.88
2022-11-25T06:34:48.180Z,100451.16
2022-11-25T06:37:27.212Z,100458.22
2022-11-25T06:39:55.173Z,100459.77
2022-11-25T06:42:23.047Z,100458.88
2022-11-25T06:44:50.986Z,100461.51
2022-11-25T06:47:19.309Z,100461.29
2022-11-25T06:49:47.179Z,100460.95
2022-11-25T06:52:15.028Z,100462.92
2022-11-25T06:54:43.272Z,100466.79
2022-11-25T06:57:12.761Z,100472.09
2022-11-25T06:59:40.781Z,100470.39
2022-11-25T07:02:12.507Z,100473.79
2022-11-25T07:04:41.029Z,100479.30
2022-11-25T07:07:08.880Z,100483.17
2022-11-25T07:09:37.108Z,100488.74
2022-11-25T07:12:05.951Z,100493.64
2022-11-25T07:14:34.173Z,100496.45
2022-11-25T07:17:05.095Z,100494.27
2022-11-25T07:19:35.799Z,100495.84
2022-11-25T07:22:03.711Z,100496.10
2022-11-25T07:24:31.700Z,100493.44
2022-11-25T07:26:59.625Z,100497.70
2022-11-25T07:32:16.268Z,100501.46
2022-11-25T07:34:44.248Z,100503.80
2022-11-25T07:37:12.328Z,100504.63
2022-11-25T07:39:40.271Z,100505.58
2022-11-25T07:42:08.595Z,100507.34
2022-11-25T07:44:36.709Z,100514.15
2022-11-25T07:47:27.413Z,100521.13
2022-11-25T07:49:55.357Z,100525.50
2022-11-25T07:52:23.854Z,100528.21
2022-11-25T07:54:53.314Z,100528.40
2022-11-25T07:57:21.423Z,100527.86
2022-11-25T07:59:49.321Z,100526.42
2022-11-25T08:02:17.194Z,100527.19
2022-11-25T08:04:45.106Z,100530.26
2022-11-25T08:07:13.258Z,100536.80
2022-11-25T08:09:41.321Z,100541.77
2022-11-25T08:12:09.251Z,100546.07
2022-11-25T08:14:37.319Z,100550.42
2022-11-25T08:17:06.188Z,100553.20
2022-11-25T08:19:34.257Z,100554.48
2022-11-25T08:22:02.254Z,100555.75
2022-11-25T08:24:30.026Z,100559.41
2022-11-25T08:27:01.344Z,100563.27
2022-11-25T08:29:29.210Z,100567.55
2022-11-25T08:31:58.490Z,100569.21
2022-11-25T08:34:26.566Z,100573.39
2022-11-25T08:36:57.274Z,100575.33
2022-11-25T08:42:13.229Z,100582.94
2022-11-25T08:44:41.180Z,100583.86
2022-11-25T08:47:10.080Z,100583.67
2022-11-25T08:49:41.265Z,100591.48
2022-11-25T08:52:10.443Z,100596.52
2022-11-25T08:54:38.693Z,100601.27
2022-11-25T08:57:07.288Z,100606.39
2022-11-25T08:59:35.724Z,100609.20
2022-11-25T09:02:04.593Z,100605.52
2022-11-25T09:04:33.916Z,100610.11
2022-11-25T09:07:04.388Z,100612.70
2022-11-25T09:09:32.444Z,100616.29
2022-11-25T09:12:00.421Z,100617.84
2022-11-25T09:14:28.476Z,100619.36
2022-11-25T09:16:57.175Z,100615.66
2022-11-25T09:19:25.250Z,100615.94
2022-11-25T09:21:53.500Z,100617.38
2022-11-25T09:24:21.599Z,100617.77
2022-11-25T09:26:49.565Z,100621.69
2022-11-25T09:29:17.495Z,100621.88
2022-11-25T09:31:47.832Z,100619.88
2022-11-25T09:34:17.971Z,100618.45
2022-11-25T09:36:46.205Z,100621.36
2022-11-25T09:39:14.036Z,100619.36
2022-11-25T09:42:22.733Z,100618.16
2022-11-25T09:45:52.022Z,100615.27
2022-11-25T09:48:19.969Z,100614.35
2022-11-25T09:50:59.382Z,100619.98
2022-11-25T09:53:27.173Z,100618.80
2022-11-25T09:56:01.880Z,100620.08
2022-11-25T09:58:37.253Z,100621.52
2022-11-25T10:01:12.706Z,100624.81
2022-11-25T10:03:48.465Z,100623.24
2022-11-25T10:06:29.934Z,100622.39
2022-11-25T10:09:11.344Z,100622.58
2022-11-25T10:11:51.236Z,100624.73
2022-11-25T10:14:19.355Z,100627.39
2022-11-25T10:16:51.586Z,100624.51
2022-11-25T10:19:38.423Z,100627.45
2022-11-25T10:22:26.198Z,100629.63
2022-11-25T10:25:00.166Z,100633.84
2022-11-25T10:27:33.045Z,100631.95
2022-11-25T10:30:07.534Z,100638.11
2022-11-25T10:32:51.231Z,100638.02
2022-11-25T10:35:50.432Z,100636.82
2022-11-25T10:38:31.466Z,100637.53
2022-11-25T10:41:01.281Z,100637.82
2022-11-25T10:43:31.897Z,100641.23
2022-11-25T10:46:24.558Z,100645.34
2022-11-25T10:49:14.265Z,100645.89
2022-11-25T10:51:50.426Z,100644.60
2022-11-25T10:54:27.273Z,100642.92
2022-11-25T10:57:20.407Z,100643.20
2022-11-25T10:59:59.695Z,100644.55
2022-11-25T11:02:30.199Z,100644.27
2022-11-25T11:05:10.392Z,100643.98
2022-11-25T11:07:41.466Z,100647.67
2022-11-25T11:10:14.836Z,100646.95
2022-11-25T11:12:58.223Z,100646.23
2022-11-25T11:15:47.096Z,100647.33
2022-11-25T11:18:15.108Z,100645.02
2022-11-25T11:20:48.887Z,100644.98
2022-11-25T11:23:16.851Z,100649.05
2022-11-25T11:25:56.359Z,100647.40
2022-11-25T11:28:39.334Z,100648.03
2022-11-25T11:31:26.475Z,100647.83
2022-11-25T11:34:05.854Z,100649.91
2022-11-25T11:36:38.517Z,100652.38
2022-11-25T11:39:28.905Z,100652.02
2022-11-25T11:42:06.035Z,100654.21
2022-11-25T11:44:36.770Z,100652.55
2022-11-25T11:47:27.490Z,100649.86
2022-11-25T11:50:04.244Z,100649.23
2022-11-25T11:52:44.365Z,100648.08
2022-11-25T11:55:33.258Z,100650.39
2022-11-25T11:58:39.334Z,100649.13
2022-11-25T12:01:29.406Z,100645.54
2022-11-25T12:04:33.343Z,100649.74
2022-11-25T12:07:17.789Z,100650.25
2022-11-25T12:09:58.118Z,100646.98
2022-11-25T12:12:36.351Z,100646.35
2022-11-25T12:15:36.411Z,100649.70
2022-11-25T12:18:20.030Z,100645.06
2022-11-25T12:20:58.001Z,100647.43
2022-11-25T12:23:58.553Z,100650.90
2022-11-25T12:26:49.405Z,100648.04
2022-11-25T12:29:29.244Z,100646.29
2022-11-25T12:32:23.334Z,100647.70
2022-11-25T12:35:02.111Z,100650.80
2022-11-25T12:37:37.551Z,100650.71
2022-11-25T12:40:19.290Z,100648.48
2022-11-25T12:42:48.981Z,100652.08
2022-11-25T12:45:25.843Z,100655.16
2022-11-25T12:47:54.237Z,100655.48
2022-11-25T12:50:40.556Z,100656.35
2022-11-25T12:53:17.263Z,100655.94
2022-11-25T12:55:45.591Z,100649.98
2022-11-25T12:58:13.776Z,100651.59
2022-11-25T13:01:20.702Z,100649.95
2022-11-25T13:04:23.490Z,100644.91
2022-11-25T13:07:07.617Z,100644.67
2022-11-25T13:09:50.654Z,100642.73
2022-11-25T13:12:46.704Z,100645.64
2022-11-25T13:15:32.406Z,100642.41
2022-11-25T13:18:09.414Z,100642.20
2022-11-25T13:20:49.984Z,100641.67
2022-11-25T13:23:17.814Z,100640.59
2022-11-25T13:25:48.232Z,100638.92
2022-11-25T13:28:36.878Z,100639.92
2022-11-25T13:31:25.770Z,100642.77
2022-11-25T13:34:21.532Z,100649.30
2022-11-25T13:36:52.385Z,100649.63
2022-11-25T13:39:33.920Z,100652.61
2022-11-25T13:42:22.432Z,100652.46
2022-11-25T13:44:59.086Z,100654.21
2022-11-25T13:47:48.146Z,100658.23
2022-11-25T13:50:21.806Z,100660.16
2022-11-25T13:52:58.941Z,100663.73
2022-11-25T13:55:40.184Z,100664.44
2022-11-25T13:58:11.003Z,100668.25
2022-11-25T14:01:23.612Z,100668.75
2022-11-25T14:04:00.377Z,100669.98
2022-11-25T14:06:52.637Z,100670.33
2022-11-25T14:09:55.003Z,100675.04
2022-11-25T14:12:31.234Z,100680.66
2022-11-25T14:15:37.983Z,100682.74
2022-11-25T14:18:17.767Z,100683.79
2022-11-25T14:21:05.868Z,100682.92
2022-11-25T14:23:58.084Z,100678.61
2022-11-25T14:26:49.335Z,100678.02
2022-11-25T14:29:30.671Z,100676.65
2022-11-25T14:32:01.356Z,100682.00
2022-11-25T14:34:58.637Z,100679.84
2022-11-25T14:37:34.905Z,100679.58
2022-11-25T14:40:17.086Z,100677.77
2022-11-25T14:42:48.433Z,100676.67
2022-11-25T14:45:20.456Z,100678.66
2022-11-25T14:47:48.505Z,100679.27
2022-11-25T14:50:34.278Z,100678.69
2022-11-25T14:53:11.385Z,100676.73
2022-11-25T14:55:39.303Z,100677.90
2022-11-25T14:58:07.243Z,100683.52
2022-11-25T15:00:35.347Z,100687.23
2022-11-25T15:03:06.896Z,100692.36
2022-11-25T15:05:37.589Z,100697.34
2022-11-25T15:08:15.961Z,100697.46
2022-11-25T15:10:54.943Z,100696.39
2022-11-25T15:13:43.903Z,100700.32
2022-11-25T15:16:19.311Z,100697.32
2022-11-25T15:18:51.629Z,100696.73
2022-11-25T15:21:24.843Z,100691.32
2022-11-25T15:23:53.378Z,100693.16
2022-11-25T15:26:27.271Z,100693.60
2022-11-25T15:28:57.338Z,100694.42
2022-11-25T15:31:36.505Z,100700.98
2022-11-25T15:34:08.285Z,100701.31
2022-11-25T15:36:36.563Z,100705.84
2022-11-25T15:39:19.765Z,100709.12
2022-11-25T15:41:50.326Z,100713.06
2022-11-25T15:44:34.026Z,100715.98
2022-11-25T15:47:07.928Z,100720.77
2022-11-25T15:49:36.198Z,100720.17
2022-11-25T15:52:09.374Z,100719.87
2022-11-25T15:54:44.651Z,100715.00
2022-11-25T15:57:24.867Z,100717.27
2022-11-25T15:59:55.817Z,100717.02
2022-11-25T16:02:47.001Z,100723.59
2022-11-25T16:05:16.348Z,100728.75
2022-11-25T16:07:50.658Z,100733.06
2022-11-25T16:10:31.665Z,100733.38
2022-11-25T16:13:21.873Z,100739.88
2022-11-25T16:16:09.619Z,100743.40
2022-11-25T16:18:54.781Z,100743.79
2022-11-25T16:21:32.876Z,100743.80
2022-11-25T16:24:07.213Z,100744.49
2022-11-25T16:26:49.063Z,100744.48
2022-11-25T16:29:31.959Z,100746.29
2022-11-25T16:32:01.014Z,100745.85
2022-11-25T16:34:29.836Z,100748.32
2022-11-25T16:36:58.302Z,100752.55
2022-11-25T16:39:26.165Z,100760.25
2022-11-25T16:41:56.812Z,100763.71
2022-11-25T16:44:27.512Z,100767.52
2022-11-25T16:46:55.782Z,100768.38
2022-11-25T16:49:24.198Z,100770.84
2022-11-25T16:51:53.191Z,100768.23
2022-11-25T16:54:22.581Z,100770.16
2022-11-25T16:56:52.963Z,100772.65
2022-11-25T16:59:33.013Z,100773.98
2022-11-25T17:02:02.332Z,100775.11
2022-11-25T17:04:30.427Z,100774.67
2022-11-25T17:09:46.959Z,100773.05
2022-11-25T17:12:20.508Z,100773.73
2022-11-25T17:14:49.226Z,100776.16
2022-11-25T17:17:24.741Z,100776.38
2022-11-25T17:19:53.933Z,100778.55
2022-11-25T17:22:24.923Z,100780.67
2022-11-25T17:24:53.825Z,100779.88
2022-11-25T17:27:31.092Z,100781.33
2022-11-25T17:30:01.716Z,100779.99
2022-11-25T17:32:30.971Z,100782.98
2022-11-25T17:34:59.570Z,100783.95
2022-11-25T17:37:28.781Z,100788.13
2022-11-25T17:39:56.882Z,100789.80
2022-11-25T17:42:31.469Z,100791.40
2022-11-25T17:45:00.505Z,100790.02
2022-11-25T17:47:28.651Z,100791.06
2022-11-25T17:49:57.886Z,100790.83
2022-11-25T17:52:25.795Z,100785.27
2022-11-25T17:54:53.761Z,100782.65
2022-11-25T17:57:22.704Z,100780.23
2022-11-25T17:59:50.676Z,100782.62
2022-11-25T18:02:22.243Z,100783.22
2022-11-25T18:04:50.775Z,100786.64
2022-11-25T18:07:19.134Z,100788.87
2022-11-25T18:09:47.156Z,100789.84
2022-11-25T18:12:30.831Z,100794.02
2022-11-25T18:14:58.874Z,100799.13
2022-11-25T18:17:26.733Z,100798.47
2022-11-25T18:19:55.634Z,100804.54
2022-11-25T18:22:24.323Z,100804.30
2022-11-25T18:24:53.803Z,100807.23
2022-11-25T18:27:27.623Z,100802.52
2022-11-25T18:29:57.289Z,100806.95
2022-11-25T18:32:25.555Z,100808.70
2022-11-25T18:34:53.806Z,100808.20
2022-11-25T18:37:21.779Z,100812.96
2022-11-25T18:39:49.728Z,100819.04
2022-11-25T18:42:27.464Z,100819.35
2022-11-25T18:44:56.499Z,100820.97
2022-11-25T18:47:24.503Z,100826.83
2022-11-25T18:49:55.805Z,100830.95
2022-11-25T18:52:25.177Z,100832.00
2022-11-25T18:54:53.197Z,100829.02
2022-11-25T18:57:21.187Z,100830.56
2022-11-25T19:00:10.286Z,100833.10
2022-11-25T19:02:37.374Z,100835.63
2022-11-25T19:05:18.009Z,100838.61
2022-11-25T19:07:48.051Z,100840.17
2022-11-25T19:10:17.351Z,100841.78
2022-11-25T19:12:49.894Z,100843.20
2022-11-25T19:15:21.467Z,100844.32
2022-11-25T19:17:55.767Z,100845.70
2022-11-25T19:20:25.065Z,100846.50
2022-11-25T19:22:56.669Z,100845.77
2022-11-25T19:25:29.445Z,100852.40
2022-11-25T19:27:59.651Z,100855.39
2022-11-25T19:30:31.988Z,100855.91
2022-11-25T19:33:02.036Z,100858.09
2022-11-25T19:35:35.581Z,100858.23
2022-11-25T19:38:16.456Z,100862.05
2022-11-25T19:40:44.813Z,100865.84
2022-11-25T19:43:12.691Z,100867.14
2022-11-25T19:45:41.079Z,100870.09
2022-11-25T19:48:14.717Z,100869.85
2022-11-25T19:50:45.207Z,100870.05
2022-11-25T19:53:22.049Z,100875.26
2022-11-25T19:55:50.111Z,100879.18
2022-11-25T19:58:18.015Z,100879.57
2022-11-25T20:00:47.813Z,100882.69
2022-11-25T20:03:24.653Z,100884.89
2022-11-25T20:05:54.516Z,100888.92
2022-11-25T20:08:25.800Z,100890.36
2022-11-25T20:10:54.857Z,100900.46
2022-11-25T20:13:24.480Z,100903.78
2022-11-25T20:15:55.633Z,100901.39
2022-11-25T20:18:24.302Z,100905.07
2022-11-25T20:21:01.061Z,100907.27
2022-11-25T20:23:44.255Z,100912.79
2022-11-25T20:26:18.105Z,100914.70
2022-11-25T20:28:46.541Z,100915.95
2022-11-25T20:31:15.092Z,100919.60
2022-11-25T20:33:43.374Z,100923.26
2022-11-25T20:36:15.472Z,100930.30
2022-11-25T20:38:53.002Z,100927.80
2022-11-25T20:41:27.431Z,100929.34
2022-11-25T20:43:57.924Z,100932.98
2022-11-25T20:46:30.111Z,100930.89
2022-11-25T20:49:01.890Z,100933.77
2022-11-25T20:51:30.269Z,100935.55
2022-11-25T20:54:02.968Z,100940.60
2022-11-25T20:56:30.897Z,100942.09
2022-11-25T20:58:58.920Z,100944.61
2022-11-25T21:01:27.027Z,100945.40
2022-11-25T21:03:54.909Z,100945.81
2022-11-25T21:06:28.988Z,100943.49
2022-11-25T21:08:59.802Z,100939.16
2022-11-25T21:11:32.050Z,100944.23
2022-11-25T21:14:00.093Z,100942.88
2022-11-25T21:16:28.023Z,100943.08
2022-11-25T21:18:55.895Z,100944.50
2022-11-25T21:21:34.314Z,100946.96
2022-11-25T21:24:37.113Z,100946.76
2022-11-25T21:27:14.480Z,100950.07
2022-11-25T21:29:45.063Z,100947.45
2022-11-25T21:32:21.665Z,100949.05
2022-11-25T21:34:50.202Z,100944.99
2022-11-25T21:37:30.695Z,100950.70
2022-11-25T21:39:59.358Z,100951.17
2022-11-25T21:42:28.631Z,100954.61
2022-11-25T21:44:56.725Z,100956.98
2022-11-25T21:47:26.967Z,100958.14
2022-11-25T21:49:55.364Z,100958.91
2022-11-25T21:52:23.190Z,100963.21
2022-11-25T21:54:50.977Z,100964.21
2022-11-25T21:57:26.987Z,100964.24
2022-11-25T21:59:55.048Z,100962.61
2022-11-25T22:02:24.754Z,100960.85
2022-11-25T22:04:52.792Z,100959.98
2022-11-25T22:07:20.747Z,100960.57
2022-11-25T22:09:48.620Z,100957.66
2022-11-25T22:12:29.610Z,100963.52
2022-11-25T22:14:59.508Z,100970.56
2022-11-25T22:17:29.314Z,100970.92
2022-11-25T22:19:57.223Z,100971.08
2022-11-25T22:22:25.068Z,100968.88
2022-11-25T22:24:52.848Z,100968.30
2022-11-25T22:27:24.680Z,100966.02
2022-11-25T22:29:53.116Z,100968.85
2022-11-25T22:32:20.951Z,100974.91
2022-11-25T22:34:48.852Z,100976.11
2022-11-25T22:37:18.023Z,100977.65
2022-11-25T22:39:46.280Z,100979.14
2022-11-25T22:42:18.659Z,100982.40
2022-11-25T22:44:49.451Z,100982.80
2022-11-25T22:47:27.105Z,100983.35
2022-11-25T22:49:55.134Z,100985.51
2022-11-25T22:52:34.544Z,100986.21
2022-11-25T22:55:14.772Z,100984.78
2022-11-25T22:57:42.853Z,100985.79
2022-11-25T23:00:16.684Z,100986.30
2022-11-25T23:02:45.129Z,100987.35
2022-11-25T23:05:17.944Z,100990.11
2022-11-25T23:07:45.982Z,100986.44
2022-11-25T23:10:16.442Z,100980.73
2022-11-25T23:12:44.904Z,100981.02
2022-11-25T23:15:18.179Z,100980.84
2022-11-25T23:17:58.048Z,100978.42
2022-11-25T23:20:36.357Z,100974.73
2022-11-25T23:23:17.995Z,100971.72
2022-11-25T23:25:46.771Z,100975.89
2022-11-25T23:28:15.112Z,100980.83
2022-11-25T23:30:49.774Z,100988.34
2022-11-25T23:33:33.180Z,100989.52
2022-11-25T23:36:06.182Z,100988.52
2022-11-25T23:38:50.209Z,100990.81
2022-11-25T23:41:30.677Z,100990.83
2022-11-25T23:44:11.256Z,100991.88
2022-11-25T23:46:40.726Z,100994.48
2022-11-25T23:49:26.233Z,100997.09
2022-11-25T23:52:06.059Z,100994.51
2022-11-25T23:54:45.444Z,100991.42
2022-11-25T23:57:22.183Z,100990.72
2022-11-25T23:59:51.577Z,100990.73
